sensor_id;sensor_type;location;lat;lon;timestamp;P1;durP1;ratioP1;P2;durP2;ratioP2
1004;SDS011;491;53.480;10.174;2022-12-20T00:00:05;9.10;;;6.20;;
1004;SDS011;491;53.480;10.174;2022-12-20T00:02:31;10.90;;;5.73;;
1004;SDS011;491;53.480;10.174;2022-12-20T00:04:57;8.63;;;5.30;;
1004;SDS011;491;53.480;10.174;2022-12-20T00:07:23;8.17;;;4.80;;
1004;SDS011;491;53.480;10.174;2022-12-20T00:09:49;7.10;;;4.43;;
1004;SDS011;491;53.480;10.174;2022-12-20T00:12:15;7.80;;;4.40;;
1004;SDS011;491;53.480;10.174;2022-12-20T00:14:41;12.00;;;5.47;;
1004;SDS011;491;53.480;10.174;2022-12-20T00:17:07;7.50;;;4.40;;
1004;SDS011;491;53.480;10.174;2022-12-20T00:19:33;7.07;;;5.43;;
1004;SDS011;491;53.480;10.174;2022-12-20T00:21:59;6.87;;;4.43;;
1004;SDS011;491;53.480;10.174;2022-12-20T00:24:24;7.83;;;5.57;;
1004;SDS011;491;53.480;10.174;2022-12-20T00:26:50;11.10;;;4.93;;
1004;SDS011;491;53.480;10.174;2022-12-20T00:29:16;9.20;;;5.33;;
1004;SDS011;491;53.480;10.174;2022-12-20T00:31:42;7.17;;;3.17;;
1004;SDS011;491;53.480;10.174;2022-12-20T00:34:08;9.00;;;5.53;;
1004;SDS011;491;53.480;10.174;2022-12-20T00:36:34;9.17;;;6.07;;
1004;SDS011;491;53.480;10.174;2022-12-20T00:39:00;8.80;;;4.27;;
1004;SDS011;491;53.480;10.174;2022-12-20T00:41:27;8.73;;;4.10;;
1004;SDS011;491;53.480;10.174;2022-12-20T00:43:54;9.83;;;4.93;;
1004;SDS011;491;53.480;10.174;2022-12-20T00:46:20;6.13;;;3.73;;
1004;SDS011;491;53.480;10.174;2022-12-20T00:48:47;9.63;;;5.33;;
1004;SDS011;491;53.480;10.174;2022-12-20T00:51:17;7.93;;;4.80;;
1004;SDS011;491;53.480;10.174;2022-12-20T00:53:43;9.07;;;3.83;;
1004;SDS011;491;53.480;10.174;2022-12-20T00:56:09;6.47;;;4.23;;
1004;SDS011;491;53.480;10.174;2022-12-20T00:58:36;8.50;;;5.47;;
1004;SDS011;491;53.480;10.174;2022-12-20T01:01:03;9.00;;;4.00;;
1004;SDS011;491;53.480;10.174;2022-12-20T01:03:29;6.43;;;4.43;;
1004;SDS011;491;53.480;10.174;2022-12-20T01:05:57;7.83;;;3.80;;
1004;SDS011;491;53.480;10.174;2022-12-20T01:08:24;9.90;;;4.70;;
1004;SDS011;491;53.480;10.174;2022-12-20T01:13:29;11.23;;;4.77;;
1004;SDS011;491;53.480;10.174;2022-12-20T01:15:55;10.53;;;4.87;;
1004;SDS011;491;53.480;10.174;2022-12-20T01:18:21;6.13;;;3.73;;
1004;SDS011;491;53.480;10.174;2022-12-20T01:20:47;7.10;;;3.70;;
1004;SDS011;491;53.480;10.174;2022-12-20T01:23:13;6.87;;;3.80;;
1004;SDS011;491;53.480;10.174;2022-12-20T01:25:39;7.50;;;4.77;;
1004;SDS011;491;53.480;10.174;2022-12-20T01:28:05;6.67;;;3.60;;
1004;SDS011;491;53.480;10.174;2022-12-20T01:30:31;8.33;;;5.00;;
1004;SDS011;491;53.480;10.174;2022-12-20T01:32:57;6.20;;;3.57;;
1004;SDS011;491;53.480;10.174;2022-12-20T01:35:22;6.63;;;3.83;;
1004;SDS011;491;53.480;10.174;2022-12-20T01:37:48;5.70;;;4.30;;
1004;SDS011;491;53.480;10.174;2022-12-20T01:40:14;6.40;;;3.87;;
1004;SDS011;491;53.480;10.174;2022-12-20T01:42:40;10.47;;;4.30;;
1004;SDS011;491;53.480;10.174;2022-12-20T01:45:07;8.70;;;4.70;;
1004;SDS011;491;53.480;10.174;2022-12-20T01:47:33;10.07;;;4.97;;
1004;SDS011;491;53.480;10.174;2022-12-20T01:50:00;6.67;;;4.07;;
1004;SDS011;491;53.480;10.174;2022-12-20T01:52:35;7.00;;;4.00;;
1004;SDS011;491;53.480;10.174;2022-12-20T01:55:04;5.60;;;4.00;;
1004;SDS011;491;53.480;10.174;2022-12-20T01:57:31;6.23;;;4.00;;
1004;SDS011;491;53.480;10.174;2022-12-20T01:59:59;8.17;;;4.20;;
1004;SDS011;491;53.480;10.174;2022-12-20T02:02:25;5.93;;;3.70;;
1004;SDS011;491;53.480;10.174;2022-12-20T02:04:51;9.60;;;6.00;;
1004;SDS011;491;53.480;10.174;2022-12-20T02:07:18;7.70;;;4.07;;
1004;SDS011;491;53.480;10.174;2022-12-20T02:09:46;9.20;;;3.97;;
1004;SDS011;491;53.480;10.174;2022-12-20T02:12:56;7.27;;;4.37;;
1004;SDS011;491;53.480;10.174;2022-12-20T02:15:22;7.10;;;3.10;;
1004;SDS011;491;53.480;10.174;2022-12-20T02:26:03;8.27;;;5.17;;
1004;SDS011;491;53.480;10.174;2022-12-20T02:28:41;6.70;;;3.53;;
1004;SDS011;491;53.480;10.174;2022-12-20T02:31:15;5.57;;;3.60;;
1004;SDS011;491;53.480;10.174;2022-12-20T02:33:44;5.97;;;3.47;;
1004;SDS011;491;53.480;10.174;2022-12-20T02:36:13;5.30;;;3.60;;
1004;SDS011;491;53.480;10.174;2022-12-20T02:38:39;4.20;;;2.77;;
1004;SDS011;491;53.480;10.174;2022-12-20T02:41:10;8.00;;;3.53;;
1004;SDS011;491;53.480;10.174;2022-12-20T02:43:37;10.63;;;3.97;;
1004;SDS011;491;53.480;10.174;2022-12-20T02:46:23;6.47;;;3.93;;
1004;SDS011;491;53.480;10.174;2022-12-20T02:48:51;7.00;;;4.37;;
1004;SDS011;491;53.480;10.174;2022-12-20T02:51:17;6.27;;;3.37;;
1004;SDS011;491;53.480;10.174;2022-12-20T02:53:44;6.60;;;3.63;;
1004;SDS011;491;53.480;10.174;2022-12-20T02:56:16;6.03;;;3.30;;
1004;SDS011;491;53.480;10.174;2022-12-20T02:58:51;9.70;;;3.40;;
1004;SDS011;491;53.480;10.174;2022-12-20T03:01:32;4.87;;;3.40;;
1004;SDS011;491;53.480;10.174;2022-12-20T03:03:59;5.70;;;3.00;;
1004;SDS011;491;53.480;10.174;2022-12-20T03:06:25;7.53;;;4.03;;
1004;SDS011;491;53.480;10.174;2022-12-20T03:08:51;7.87;;;4.00;;
1004;SDS011;491;53.480;10.174;2022-12-20T03:11:17;7.10;;;3.40;;
1004;SDS011;491;53.480;10.174;2022-12-20T03:13:44;4.43;;;3.20;;
1004;SDS011;491;53.480;10.174;2022-12-20T03:16:10;10.20;;;4.37;;
1004;SDS011;491;53.480;10.174;2022-12-20T03:18:36;7.60;;;4.33;;
1004;SDS011;491;53.480;10.174;2022-12-20T03:21:02;8.70;;;3.53;;
1004;SDS011;491;53.480;10.174;2022-12-20T03:23:28;6.33;;;3.70;;
1004;SDS011;491;53.480;10.174;2022-12-20T03:25:54;6.03;;;3.50;;
1004;SDS011;491;53.480;10.174;2022-12-20T03:28:20;8.83;;;2.97;;
1004;SDS011;491;53.480;10.174;2022-12-20T03:30:46;5.80;;;3.20;;
1004;SDS011;491;53.480;10.174;2022-12-20T03:33:12;6.47;;;4.00;;
1004;SDS011;491;53.480;10.174;2022-12-20T03:35:38;6.40;;;4.30;;
1004;SDS011;491;53.480;10.174;2022-12-20T03:38:04;5.73;;;3.40;;
1004;SDS011;491;53.480;10.174;2022-12-20T03:40:30;7.90;;;4.00;;
1004;SDS011;491;53.480;10.174;2022-12-20T03:42:56;8.03;;;3.10;;
1004;SDS011;491;53.480;10.174;2022-12-20T03:45:22;7.37;;;4.40;;
1004;SDS011;491;53.480;10.174;2022-12-20T03:47:48;6.10;;;3.27;;
1004;SDS011;491;53.480;10.174;2022-12-20T03:50:14;6.07;;;3.23;;
1004;SDS011;491;53.480;10.174;2022-12-20T03:52:40;9.70;;;4.70;;
1004;SDS011;491;53.480;10.174;2022-12-20T03:55:06;6.60;;;3.57;;
1004;SDS011;491;53.480;10.174;2022-12-20T03:57:33;6.10;;;3.13;;
1004;SDS011;491;53.480;10.174;2022-12-20T03:59:59;7.60;;;3.80;;
1004;SDS011;491;53.480;10.174;2022-12-20T04:02:25;6.57;;;4.03;;
1004;SDS011;491;53.480;10.174;2022-12-20T04:04:51;6.33;;;3.20;;
1004;SDS011;491;53.480;10.174;2022-12-20T04:07:17;6.53;;;3.40;;
1004;SDS011;491;53.480;10.174;2022-12-20T04:09:43;6.60;;;3.60;;
1004;SDS011;491;53.480;10.174;2022-12-20T04:12:09;10.47;;;4.97;;
1004;SDS011;491;53.480;10.174;2022-12-20T04:14:35;4.70;;;2.80;;
1004;SDS011;491;53.480;10.174;2022-12-20T04:17:01;8.37;;;3.73;;
1004;SDS011;491;53.480;10.174;2022-12-20T04:19:27;7.37;;;5.33;;
1004;SDS011;491;53.480;10.174;2022-12-20T04:21:53;7.20;;;4.57;;
1004;SDS011;491;53.480;10.174;2022-12-20T04:24:20;6.67;;;4.13;;
1004;SDS011;491;53.480;10.174;2022-12-20T04:26:47;7.93;;;3.87;;
1004;SDS011;491;53.480;10.174;2022-12-20T04:29:13;5.67;;;4.90;;
1004;SDS011;491;53.480;10.174;2022-12-20T04:31:39;5.80;;;3.23;;
1004;SDS011;491;53.480;10.174;2022-12-20T04:34:06;6.37;;;4.00;;
1004;SDS011;491;53.480;10.174;2022-12-20T04:36:31;8.27;;;4.10;;
1004;SDS011;491;53.480;10.174;2022-12-20T04:38:57;12.20;;;3.77;;
1004;SDS011;491;53.480;10.174;2022-12-20T04:41:23;8.20;;;4.13;;
1004;SDS011;491;53.480;10.174;2022-12-20T04:43:51;8.23;;;5.53;;
1004;SDS011;491;53.480;10.174;2022-12-20T04:46:17;8.70;;;4.87;;
1004;SDS011;491;53.480;10.174;2022-12-20T04:48:43;10.67;;;4.77;;
1004;SDS011;491;53.480;10.174;2022-12-20T04:51:09;6.13;;;3.90;;
1004;SDS011;491;53.480;10.174;2022-12-20T04:53:35;7.30;;;4.07;;
1004;SDS011;491;53.480;10.174;2022-12-20T04:56:18;7.30;;;4.70;;
1004;SDS011;491;53.480;10.174;2022-12-20T04:58:45;9.03;;;4.70;;
1004;SDS011;491;53.480;10.174;2022-12-20T05:01:11;11.30;;;4.57;;
1004;SDS011;491;53.480;10.174;2022-12-20T05:03:38;7.33;;;4.03;;
1004;SDS011;491;53.480;10.174;2022-12-20T05:06:04;8.80;;;4.70;;
1004;SDS011;491;53.480;10.174;2022-12-20T05:08:30;6.40;;;4.43;;
1004;SDS011;491;53.480;10.174;2022-12-20T05:10:56;10.03;;;4.80;;
1004;SDS011;491;53.480;10.174;2022-12-20T05:13:22;10.53;;;4.60;;
1004;SDS011;491;53.480;10.174;2022-12-20T05:15:51;8.40;;;4.10;;
1004;SDS011;491;53.480;10.174;2022-12-20T05:18:17;9.73;;;5.33;;
1004;SDS011;491;53.480;10.174;2022-12-20T05:20:43;9.47;;;5.90;;
1004;SDS011;491;53.480;10.174;2022-12-20T05:23:09;11.90;;;6.70;;
1004;SDS011;491;53.480;10.174;2022-12-20T05:25:54;7.67;;;5.57;;
1004;SDS011;491;53.480;10.174;2022-12-20T05:28:39;10.40;;;5.70;;
1004;SDS011;491;53.480;10.174;2022-12-20T05:31:05;9.90;;;5.87;;
1004;SDS011;491;53.480;10.174;2022-12-20T05:33:31;9.33;;;6.20;;
1004;SDS011;491;53.480;10.174;2022-12-20T05:35:57;12.30;;;6.50;;
1004;SDS011;491;53.480;10.174;2022-12-20T05:38:23;9.70;;;5.50;;
1004;SDS011;491;53.480;10.174;2022-12-20T05:40:49;13.27;;;6.70;;
1004;SDS011;491;53.480;10.174;2022-12-20T05:43:15;12.33;;;6.27;;
1004;SDS011;491;53.480;10.174;2022-12-20T05:45:48;8.50;;;5.27;;
1004;SDS011;491;53.480;10.174;2022-12-20T05:48:15;11.23;;;6.57;;
1004;SDS011;491;53.480;10.174;2022-12-20T05:50:41;8.93;;;6.63;;
1004;SDS011;491;53.480;10.174;2022-12-20T05:53:08;10.33;;;6.47;;
1004;SDS011;491;53.480;10.174;2022-12-20T05:55:34;15.23;;;5.87;;
1004;SDS011;491;53.480;10.174;2022-12-20T05:58:00;9.43;;;6.80;;
1004;SDS011;491;53.480;10.174;2022-12-20T06:00:26;13.97;;;7.60;;
1004;SDS011;491;53.480;10.174;2022-12-20T06:02:52;11.03;;;6.50;;
1004;SDS011;491;53.480;10.174;2022-12-20T06:05:18;11.40;;;6.77;;
1004;SDS011;491;53.480;10.174;2022-12-20T06:07:44;7.60;;;5.40;;
1004;SDS011;491;53.480;10.174;2022-12-20T06:10:10;11.03;;;6.13;;
1004;SDS011;491;53.480;10.174;2022-12-20T06:12:36;8.90;;;4.37;;
1004;SDS011;491;53.480;10.174;2022-12-20T06:15:02;9.40;;;5.23;;
1004;SDS011;491;53.480;10.174;2022-12-20T06:17:28;8.37;;;5.00;;
1004;SDS011;491;53.480;10.174;2022-12-20T06:19:54;9.27;;;3.70;;
1004;SDS011;491;53.480;10.174;2022-12-20T06:22:20;12.03;;;4.00;;
1004;SDS011;491;53.480;10.174;2022-12-20T06:24:47;6.97;;;3.23;;
1004;SDS011;491;53.480;10.174;2022-12-20T06:27:12;13.43;;;4.67;;
1004;SDS011;491;53.480;10.174;2022-12-20T06:29:39;6.30;;;3.33;;
1004;SDS011;491;53.480;10.174;2022-12-20T06:32:04;6.50;;;4.77;;
1004;SDS011;491;53.480;10.174;2022-12-20T06:34:31;10.80;;;3.80;;
1004;SDS011;491;53.480;10.174;2022-12-20T06:36:57;5.30;;;4.50;;
1004;SDS011;491;53.480;10.174;2022-12-20T06:39:23;10.00;;;5.13;;
1004;SDS011;491;53.480;10.174;2022-12-20T06:41:49;6.97;;;3.40;;
1004;SDS011;491;53.480;10.174;2022-12-20T06:44:15;7.17;;;3.40;;
1004;SDS011;491;53.480;10.174;2022-12-20T06:46:41;7.90;;;4.23;;
1004;SDS011;491;53.480;10.174;2022-12-20T06:49:06;6.80;;;4.10;;
1004;SDS011;491;53.480;10.174;2022-12-20T06:51:32;6.57;;;4.20;;
1004;SDS011;491;53.480;10.174;2022-12-20T06:53:58;9.63;;;5.27;;
1004;SDS011;491;53.480;10.174;2022-12-20T06:56:24;10.30;;;5.07;;
1004;SDS011;491;53.480;10.174;2022-12-20T06:58:50;8.03;;;6.00;;
1004;SDS011;491;53.480;10.174;2022-12-20T07:01:16;7.27;;;3.27;;
1004;SDS011;491;53.480;10.174;2022-12-20T07:03:43;8.60;;;4.17;;
1004;SDS011;491;53.480;10.174;2022-12-20T07:06:09;9.47;;;4.90;;
1004;SDS011;491;53.480;10.174;2022-12-20T07:08:35;9.40;;;4.20;;
1004;SDS011;491;53.480;10.174;2022-12-20T07:11:07;9.47;;;5.00;;
1004;SDS011;491;53.480;10.174;2022-12-20T07:13:33;9.00;;;6.13;;
1004;SDS011;491;53.480;10.174;2022-12-20T07:16:00;7.90;;;5.00;;
1004;SDS011;491;53.480;10.174;2022-12-20T07:18:26;9.30;;;4.73;;
1004;SDS011;491;53.480;10.174;2022-12-20T07:20:52;9.10;;;4.40;;
1004;SDS011;491;53.480;10.174;2022-12-20T07:23:18;7.53;;;5.43;;
1004;SDS011;491;53.480;10.174;2022-12-20T07:25:54;8.20;;;4.40;;
1004;SDS011;491;53.480;10.174;2022-12-20T07:28:21;9.30;;;5.50;;
1004;SDS011;491;53.480;10.174;2022-12-20T07:30:47;9.23;;;5.20;;
1004;SDS011;491;53.480;10.174;2022-12-20T07:33:16;9.40;;;5.27;;
1004;SDS011;491;53.480;10.174;2022-12-20T07:35:42;8.13;;;5.20;;
1004;SDS011;491;53.480;10.174;2022-12-20T07:38:09;9.20;;;5.40;;
1004;SDS011;491;53.480;10.174;2022-12-20T07:40:35;7.67;;;4.10;;
1004;SDS011;491;53.480;10.174;2022-12-20T07:43:04;7.07;;;4.60;;
1004;SDS011;491;53.480;10.174;2022-12-20T07:45:30;11.83;;;5.50;;
1004;SDS011;491;53.480;10.174;2022-12-20T07:47:56;8.20;;;5.10;;
1004;SDS011;491;53.480;10.174;2022-12-20T07:50:22;9.93;;;5.83;;
1004;SDS011;491;53.480;10.174;2022-12-20T07:52:48;10.40;;;5.80;;
1004;SDS011;491;53.480;10.174;2022-12-20T07:55:15;9.97;;;5.53;;
1004;SDS011;491;53.480;10.174;2022-12-20T07:57:55;10.50;;;6.03;;
1004;SDS011;491;53.480;10.174;2022-12-20T08:00:22;9.23;;;5.40;;
1004;SDS011;491;53.480;10.174;2022-12-20T08:02:49;8.70;;;5.53;;
1004;SDS011;491;53.480;10.174;2022-12-20T08:05:17;9.60;;;5.67;;
1004;SDS011;491;53.480;10.174;2022-12-20T08:07:43;10.40;;;5.30;;
1004;SDS011;491;53.480;10.174;2022-12-20T08:10:11;7.07;;;5.33;;
1004;SDS011;491;53.480;10.174;2022-12-20T08:12:39;8.80;;;5.23;;
1004;SDS011;491;53.480;10.174;2022-12-20T08:15:06;11.80;;;6.53;;
1004;SDS011;491;53.480;10.174;2022-12-20T08:17:32;12.17;;;6.80;;
1004;SDS011;491;53.480;10.174;2022-12-20T08:19:58;12.60;;;6.97;;
1004;SDS011;491;53.480;10.174;2022-12-20T08:22:25;12.93;;;7.07;;
1004;SDS011;491;53.480;10.174;2022-12-20T08:24:51;8.57;;;4.93;;
1004;SDS011;491;53.480;10.174;2022-12-20T08:27:17;10.07;;;6.07;;
1004;SDS011;491;53.480;10.174;2022-12-20T08:29:43;10.47;;;6.10;;
1004;SDS011;491;53.480;10.174;2022-12-20T08:32:09;7.67;;;5.00;;
1004;SDS011;491;53.480;10.174;2022-12-20T08:34:36;11.33;;;5.73;;
1004;SDS011;491;53.480;10.174;2022-12-20T08:37:03;8.43;;;5.30;;
1004;SDS011;491;53.480;10.174;2022-12-20T08:39:29;9.27;;;6.33;;
1004;SDS011;491;53.480;10.174;2022-12-20T08:41:55;13.07;;;6.30;;
1004;SDS011;491;53.480;10.174;2022-12-20T08:44:21;9.87;;;5.43;;
1004;SDS011;491;53.480;10.174;2022-12-20T08:46:47;10.40;;;6.20;;
1004;SDS011;491;53.480;10.174;2022-12-20T08:49:12;11.80;;;6.43;;
1004;SDS011;491;53.480;10.174;2022-12-20T08:51:39;9.80;;;6.23;;
1004;SDS011;491;53.480;10.174;2022-12-20T08:54:05;8.97;;;5.60;;
1004;SDS011;491;53.480;10.174;2022-12-20T08:56:31;11.90;;;6.37;;
1004;SDS011;491;53.480;10.174;2022-12-20T08:58:56;10.57;;;6.20;;
1004;SDS011;491;53.480;10.174;2022-12-20T09:01:22;10.00;;;6.90;;
1004;SDS011;491;53.480;10.174;2022-12-20T09:03:50;10.30;;;5.70;;
1004;SDS011;491;53.480;10.174;2022-12-20T09:06:19;10.40;;;6.47;;
1004;SDS011;491;53.480;10.174;2022-12-20T09:08:46;9.50;;;6.50;;
1004;SDS011;491;53.480;10.174;2022-12-20T09:13:42;9.70;;;5.67;;
1004;SDS011;491;53.480;10.174;2022-12-20T09:16:08;8.87;;;5.07;;
1004;SDS011;491;53.480;10.174;2022-12-20T09:18:34;12.30;;;6.47;;
1004;SDS011;491;53.480;10.174;2022-12-20T09:21:01;8.70;;;5.00;;
1004;SDS011;491;53.480;10.174;2022-12-20T09:23:28;6.90;;;5.37;;
1004;SDS011;491;53.480;10.174;2022-12-20T09:25:54;8.90;;;4.90;;
1004;SDS011;491;53.480;10.174;2022-12-20T09:28:20;11.60;;;6.50;;
1004;SDS011;491;53.480;10.174;2022-12-20T09:30:46;12.53;;;6.50;;
1004;SDS011;491;53.480;10.174;2022-12-20T09:33:12;7.93;;;4.47;;
1004;SDS011;491;53.480;10.174;2022-12-20T09:35:45;10.30;;;5.77;;
1004;SDS011;491;53.480;10.174;2022-12-20T09:38:11;8.37;;;5.20;;
1004;SDS011;491;53.480;10.174;2022-12-20T09:40:37;8.80;;;4.80;;
1004;SDS011;491;53.480;10.174;2022-12-20T09:43:04;6.80;;;4.10;;
1004;SDS011;491;53.480;10.174;2022-12-20T09:45:34;10.30;;;5.70;;
1004;SDS011;491;53.480;10.174;2022-12-20T09:48:01;8.00;;;4.03;;
1004;SDS011;491;53.480;10.174;2022-12-20T09:51:06;8.80;;;4.60;;
1004;SDS011;491;53.480;10.174;2022-12-20T09:56:14;9.13;;;4.47;;
1004;SDS011;491;53.480;10.174;2022-12-20T10:01:13;7.60;;;3.97;;
1004;SDS011;491;53.480;10.174;2022-12-20T10:03:40;8.87;;;5.17;;
1004;SDS011;491;53.480;10.174;2022-12-20T10:08:56;10.13;;;4.30;;
1004;SDS011;491;53.480;10.174;2022-12-20T10:11:28;8.40;;;4.77;;
1004;SDS011;491;53.480;10.174;2022-12-20T10:16:38;9.93;;;4.50;;
1004;SDS011;491;53.480;10.174;2022-12-20T10:24:21;9.00;;;4.50;;
1004;SDS011;491;53.480;10.174;2022-12-20T10:26:50;7.83;;;4.77;;
1004;SDS011;491;53.480;10.174;2022-12-20T10:29:16;8.00;;;4.13;;
1004;SDS011;491;53.480;10.174;2022-12-20T10:31:42;8.27;;;4.43;;
1004;SDS011;491;53.480;10.174;2022-12-20T10:34:08;6.20;;;3.70;;
1004;SDS011;491;53.480;10.174;2022-12-20T10:36:37;6.37;;;4.00;;
1004;SDS011;491;53.480;10.174;2022-12-20T10:39:04;6.53;;;3.77;;
1004;SDS011;491;53.480;10.174;2022-12-20T10:41:48;5.77;;;2.80;;
1004;SDS011;491;53.480;10.174;2022-12-20T10:44:25;7.70;;;4.50;;
1004;SDS011;491;53.480;10.174;2022-12-20T10:46:55;7.80;;;4.33;;
1004;SDS011;491;53.480;10.174;2022-12-20T10:51:56;6.57;;;3.77;;
1004;SDS011;491;53.480;10.174;2022-12-20T10:54:33;6.80;;;3.77;;
1004;SDS011;491;53.480;10.174;2022-12-20T10:57:00;7.27;;;3.27;;
1004;SDS011;491;53.480;10.174;2022-12-20T10:59:31;6.83;;;4.60;;
1004;SDS011;491;53.480;10.174;2022-12-20T11:01:58;6.60;;;2.67;;
1004;SDS011;491;53.480;10.174;2022-12-20T11:04:26;7.07;;;3.60;;
1004;SDS011;491;53.480;10.174;2022-12-20T11:06:53;7.30;;;4.03;;
1004;SDS011;491;53.480;10.174;2022-12-20T11:11:57;6.30;;;3.70;;
1004;SDS011;491;53.480;10.174;2022-12-20T11:14:24;6.27;;;4.37;;
1004;SDS011;491;53.480;10.174;2022-12-20T11:16:50;5.93;;;2.80;;
1004;SDS011;491;53.480;10.174;2022-12-20T11:24:33;5.93;;;3.40;;
1004;SDS011;491;53.480;10.174;2022-12-20T11:27:07;7.30;;;3.60;;
1004;SDS011;491;53.480;10.174;2022-12-20T11:40:31;6.70;;;3.97;;
1004;SDS011;491;53.480;10.174;2022-12-20T11:45:27;6.13;;;3.93;;
1004;SDS011;491;53.480;10.174;2022-12-20T11:48:08;5.50;;;2.93;;
1004;SDS011;491;53.480;10.174;2022-12-20T11:53:30;6.20;;;3.70;;
1004;SDS011;491;53.480;10.174;2022-12-20T11:55:59;5.10;;;4.00;;
1004;SDS011;491;53.480;10.174;2022-12-20T11:58:28;5.60;;;3.10;;
1004;SDS011;491;53.480;10.174;2022-12-20T12:00:59;5.10;;;3.20;;
1004;SDS011;491;53.480;10.174;2022-12-20T12:03:32;7.37;;;3.80;;
1004;SDS011;491;53.480;10.174;2022-12-20T12:06:02;6.80;;;3.90;;
1004;SDS011;491;53.480;10.174;2022-12-20T12:08:47;4.97;;;2.53;;
1004;SDS011;491;53.480;10.174;2022-12-20T12:11:18;4.00;;;2.73;;
1004;SDS011;491;53.480;10.174;2022-12-20T12:13:45;7.87;;;3.27;;
1004;SDS011;491;53.480;10.174;2022-12-20T12:16:17;5.13;;;2.93;;
1004;SDS011;491;53.480;10.174;2022-12-20T12:18:44;4.27;;;2.40;;
1004;SDS011;491;53.480;10.174;2022-12-20T12:21:55;5.87;;;2.57;;
1004;SDS011;491;53.480;10.174;2022-12-20T12:26:38;5.27;;;3.67;;
1004;SDS011;491;53.480;10.174;2022-12-20T12:34:29;5.70;;;2.70;;
1004;SDS011;491;53.480;10.174;2022-12-20T12:37:11;6.47;;;2.73;;
1004;SDS011;491;53.480;10.174;2022-12-20T12:42:37;5.87;;;3.47;;
1004;SDS011;491;53.480;10.174;2022-12-20T12:45:13;7.00;;;3.10;;
1004;SDS011;491;53.480;10.174;2022-12-20T12:47:44;5.47;;;2.17;;
1004;SDS011;491;53.480;10.174;2022-12-20T12:50:35;5.33;;;2.77;;
1004;SDS011;491;53.480;10.174;2022-12-20T12:53:06;5.47;;;2.63;;
1004;SDS011;491;53.480;10.174;2022-12-20T12:55:40;5.60;;;3.53;;
1004;SDS011;491;53.480;10.174;2022-12-20T12:58:13;6.30;;;3.13;;
1004;SDS011;491;53.480;10.174;2022-12-20T13:00:50;5.43;;;3.27;;
1004;SDS011;491;53.480;10.174;2022-12-20T13:08:47;6.50;;;4.23;;
1004;SDS011;491;53.480;10.174;2022-12-20T13:11:14;5.43;;;2.73;;
1004;SDS011;491;53.480;10.174;2022-12-20T13:22:27;5.63;;;2.80;;
1004;SDS011;491;53.480;10.174;2022-12-20T13:24:56;8.03;;;3.07;;
1004;SDS011;491;53.480;10.174;2022-12-20T13:27:28;5.00;;;2.70;;
1004;SDS011;491;53.480;10.174;2022-12-20T13:30:40;6.40;;;2.93;;
1004;SDS011;491;53.480;10.174;2022-12-20T13:38:53;4.83;;;2.37;;
1004;SDS011;491;53.480;10.174;2022-12-20T13:40:59;3.50;;;1.63;;
1004;SDS011;491;53.480;10.174;2022-12-20T13:43:27;6.53;;;2.80;;
1004;SDS011;491;53.480;10.174;2022-12-20T13:51:03;4.77;;;1.90;;
1004;SDS011;491;53.480;10.174;2022-12-20T13:53:30;3.87;;;2.00;;
1004;SDS011;491;53.480;10.174;2022-12-20T13:55:57;3.63;;;1.83;;
1004;SDS011;491;53.480;10.174;2022-12-20T13:58:29;4.47;;;2.77;;
1004;SDS011;491;53.480;10.174;2022-12-20T14:01:04;3.93;;;2.57;;
1004;SDS011;491;53.480;10.174;2022-12-20T14:03:44;3.43;;;2.10;;
1004;SDS011;491;53.480;10.174;2022-12-20T14:06:20;7.47;;;2.00;;
1004;SDS011;491;53.480;10.174;2022-12-20T14:08:48;4.93;;;3.03;;
1004;SDS011;491;53.480;10.174;2022-12-20T14:11:19;6.80;;;2.63;;
1004;SDS011;491;53.480;10.174;2022-12-20T14:16:36;4.13;;;3.00;;
1004;SDS011;491;53.480;10.174;2022-12-20T14:19:43;4.10;;;1.87;;
1004;SDS011;491;53.480;10.174;2022-12-20T14:22:13;3.90;;;2.10;;
1004;SDS011;491;53.480;10.174;2022-12-20T14:25:15;3.77;;;2.10;;
1004;SDS011;491;53.480;10.174;2022-12-20T14:28:15;3.43;;;1.70;;
1004;SDS011;491;53.480;10.174;2022-12-20T14:30:46;4.07;;;2.17;;
1004;SDS011;491;53.480;10.174;2022-12-20T14:33:58;4.20;;;3.17;;
1004;SDS011;491;53.480;10.174;2022-12-20T14:38:41;6.63;;;3.03;;
1004;SDS011;491;53.480;10.174;2022-12-20T14:43:56;4.00;;;2.90;;
1004;SDS011;491;53.480;10.174;2022-12-20T14:46:26;4.70;;;2.23;;
1004;SDS011;491;53.480;10.174;2022-12-20T14:49:06;7.30;;;2.73;;
1004;SDS011;491;53.480;10.174;2022-12-20T14:51:34;6.93;;;3.50;;
1004;SDS011;491;53.480;10.174;2022-12-20T14:54:00;6.93;;;3.00;;
1004;SDS011;491;53.480;10.174;2022-12-20T14:56:27;6.20;;;2.77;;
1004;SDS011;491;53.480;10.174;2022-12-20T14:59:14;3.77;;;1.30;;
1004;SDS011;491;53.480;10.174;2022-12-20T15:01:41;4.33;;;1.83;;
1004;SDS011;491;53.480;10.174;2022-12-20T15:04:23;4.57;;;1.83;;
1004;SDS011;491;53.480;10.174;2022-12-20T15:06:50;5.30;;;2.10;;
1004;SDS011;491;53.480;10.174;2022-12-20T15:09:19;5.80;;;2.63;;
1004;SDS011;491;53.480;10.174;2022-12-20T15:11:45;5.00;;;2.40;;
1004;SDS011;491;53.480;10.174;2022-12-20T15:16:53;6.67;;;2.90;;
1004;SDS011;491;53.480;10.174;2022-12-20T15:19:19;7.67;;;2.20;;
1004;SDS011;491;53.480;10.174;2022-12-20T15:21:45;5.73;;;2.67;;
1004;SDS011;491;53.480;10.174;2022-12-20T15:24:12;4.73;;;2.93;;
1004;SDS011;491;53.480;10.174;2022-12-20T15:26:39;7.20;;;2.23;;
1004;SDS011;491;53.480;10.174;2022-12-20T15:29:05;4.13;;;2.97;;
1004;SDS011;491;53.480;10.174;2022-12-20T15:31:32;7.70;;;2.40;;
1004;SDS011;491;53.480;10.174;2022-12-20T15:33:59;5.60;;;2.67;;
1004;SDS011;491;53.480;10.174;2022-12-20T15:36:26;6.23;;;3.33;;
1004;SDS011;491;53.480;10.174;2022-12-20T15:38:53;5.80;;;3.30;;
1004;SDS011;491;53.480;10.174;2022-12-20T15:41:24;4.07;;;2.67;;
1004;SDS011;491;53.480;10.174;2022-12-20T15:43:51;3.97;;;2.33;;
1004;SDS011;491;53.480;10.174;2022-12-20T15:46:18;5.73;;;2.67;;
1004;SDS011;491;53.480;10.174;2022-12-20T15:48:44;5.40;;;3.10;;
1004;SDS011;491;53.480;10.174;2022-12-20T15:51:12;6.47;;;4.57;;
1004;SDS011;491;53.480;10.174;2022-12-20T15:53:39;5.87;;;2.80;;
1004;SDS011;491;53.480;10.174;2022-12-20T15:56:07;9.30;;;3.67;;
1004;SDS011;491;53.480;10.174;2022-12-20T15:58:37;4.10;;;2.80;;
1004;SDS011;491;53.480;10.174;2022-12-20T16:01:11;3.27;;;2.40;;
1004;SDS011;491;53.480;10.174;2022-12-20T16:03:57;4.53;;;2.10;;
1004;SDS011;491;53.480;10.174;2022-12-20T16:06:23;3.63;;;1.60;;
1004;SDS011;491;53.480;10.174;2022-12-20T16:08:52;5.90;;;3.07;;
1004;SDS011;491;53.480;10.174;2022-12-20T16:11:22;5.30;;;2.80;;
1004;SDS011;491;53.480;10.174;2022-12-20T16:13:48;6.77;;;3.13;;
1004;SDS011;491;53.480;10.174;2022-12-20T16:16:18;6.17;;;3.30;;
1004;SDS011;491;53.480;10.174;2022-12-20T16:18:45;4.20;;;2.10;;
1004;SDS011;491;53.480;10.174;2022-12-20T16:21:18;4.57;;;2.00;;
1004;SDS011;491;53.480;10.174;2022-12-20T16:23:45;3.20;;;2.63;;
1004;SDS011;491;53.480;10.174;2022-12-20T16:26:12;7.90;;;3.13;;
1004;SDS011;491;53.480;10.174;2022-12-20T16:28:38;5.90;;;3.77;;
1004;SDS011;491;53.480;10.174;2022-12-20T16:31:09;4.63;;;2.93;;
1004;SDS011;491;53.480;10.174;2022-12-20T16:33:38;5.83;;;3.07;;
1004;SDS011;491;53.480;10.174;2022-12-20T16:36:04;5.90;;;3.60;;
1004;SDS011;491;53.480;10.174;2022-12-20T16:38:30;4.57;;;3.07;;
1004;SDS011;491;53.480;10.174;2022-12-20T16:40:57;7.13;;;3.63;;
1004;SDS011;491;53.480;10.174;2022-12-20T16:43:32;4.83;;;1.80;;
1004;SDS011;491;53.480;10.174;2022-12-20T16:45:58;5.57;;;3.20;;
1004;SDS011;491;53.480;10.174;2022-12-20T16:48:24;5.23;;;2.40;;
1004;SDS011;491;53.480;10.174;2022-12-20T16:50:50;4.03;;;2.73;;
1004;SDS011;491;53.480;10.174;2022-12-20T16:53:16;5.83;;;3.20;;
1004;SDS011;491;53.480;10.174;2022-12-20T16:55:43;3.80;;;3.07;;
1004;SDS011;491;53.480;10.174;2022-12-20T16:58:09;5.70;;;4.23;;
1004;SDS011;491;53.480;10.174;2022-12-20T17:00:36;6.90;;;3.03;;
1004;SDS011;491;53.480;10.174;2022-12-20T17:03:02;5.50;;;3.13;;